createdAt,value
2022-08-07T00:00:40.037Z,25.67
2022-08-07T00:03:09.527Z,25.67
2022-08-07T00:05:38.570Z,25.67
2022-08-07T00:08:08.385Z,25.66
2022-08-07T00:10:48.298Z,25.63
2022-08-07T00:13:26.815Z,25.61
2022-08-07T00:15:55.602Z,25.58
2022-08-07T00:18:25.290Z,25.57
2022-08-07T00:20:57.401Z,25.58
2022-08-07T00:23:31.835Z,25.57
2022-08-07T00:26:13.167Z,25.54
2022-08-07T00:28:57.037Z,25.50
2022-08-07T00:31:38.125Z,25.52
2022-08-07T00:34:10.099Z,25.56
2022-08-07T00:36:42.937Z,25.60
2022-08-07T00:39:16.508Z,25.62
2022-08-07T00:41:53.854Z,25.64
2022-08-07T00:44:30.116Z,25.63
2022-08-07T00:46:59.670Z,25.61
2022-08-07T00:50:20.814Z,25.61
2022-08-07T00:52:17.641Z,25.60
2022-08-07T00:54:53.742Z,25.63
2022-08-07T00:57:23.430Z,25.64
2022-08-07T00:59:54.421Z,25.64
2022-08-07T01:02:28.560Z,25.65
2022-08-07T01:04:58.616Z,25.66
2022-08-07T01:07:29.332Z,25.68
2022-08-07T01:10:07.126Z,25.67
2022-08-07T01:12:53.482Z,25.66
2022-08-07T01:15:36.005Z,25.64
2022-08-07T01:18:16.790Z,25.65
2022-08-07T01:20:59.639Z,25.67
2022-08-07T01:23:36.354Z,25.66
2022-08-07T01:26:11.994Z,25.65
2022-08-07T01:28:41.206Z,25.64
2022-08-07T01:31:15.558Z,25.66
2022-08-07T01:33:53.577Z,25.66
2022-08-07T01:36:33.910Z,25.64
2022-08-07T01:39:09.781Z,25.61
2022-08-07T01:41:40.878Z,25.60
2022-08-07T01:44:27.673Z,25.59
2022-08-07T01:46:56.386Z,25.59
2022-08-07T01:49:24.856Z,25.59
2022-08-07T01:52:01.884Z,25.60
2022-08-07T01:54:41.419Z,25.57
2022-08-07T01:57:20.664Z,25.55
2022-08-07T01:59:55.985Z,25.52
2022-08-07T02:03:11.626Z,25.53
2022-08-07T02:05:42.987Z,25.53
2022-08-07T02:08:12.172Z,25.57
2022-08-07T02:10:43.838Z,25.59
2022-08-07T02:13:17.217Z,25.60
2022-08-07T02:15:47.361Z,25.60
2022-08-07T02:18:21.667Z,25.56
2022-08-07T02:20:55.920Z,25.55
2022-08-07T02:23:26.329Z,25.55
2022-08-07T02:26:26.783Z,25.59
2022-08-07T02:28:44.790Z,25.61
2022-08-07T02:31:28.589Z,25.61
2022-08-07T02:34:03.002Z,25.62
2022-08-07T02:36:33.330Z,25.63
2022-08-07T02:39:02.899Z,25.65
2022-08-07T02:41:54.418Z,25.66
2022-08-07T02:44:26.718Z,25.67
2022-08-07T02:46:56.227Z,25.64
2022-08-07T02:49:28.628Z,25.64
2022-08-07T02:52:18.579Z,25.64
2022-08-07T02:54:50.327Z,25.63
2022-08-07T02:57:22.586Z,25.64
2022-08-07T03:00:01.174Z,25.65
2022-08-07T03:02:33.479Z,25.66
2022-08-07T03:05:06.598Z,25.65
2022-08-07T03:07:58.920Z,25.60
2022-08-07T03:10:24.182Z,25.59
2022-08-07T03:12:54.934Z,25.61
2022-08-07T03:15:30.197Z,25.57
2022-08-07T03:18:17.628Z,25.56
2022-08-07T03:20:48.733Z,25.56
2022-08-07T03:23:20.987Z,25.55
2022-08-07T03:26:03.003Z,25.59
2022-08-07T03:28:37.717Z,25.60
2022-08-07T03:31:24.618Z,25.59
2022-08-07T03:33:57.859Z,25.56
2022-08-07T03:36:28.928Z,25.51
2022-08-07T03:39:05.412Z,25.43
2022-08-07T03:41:42.273Z,25.41
2022-08-07T03:44:21.772Z,25.45
2022-08-07T03:47:13.003Z,25.49
2022-08-07T03:49:47.792Z,25.55
2022-08-07T03:52:22.878Z,25.59
2022-08-07T03:54:57.437Z,25.57
2022-08-07T03:58:34.344Z,25.56
2022-08-07T04:00:30.347Z,25.59
2022-08-07T04:02:59.469Z,25.62
2022-08-07T04:05:28.782Z,25.60
2022-08-07T04:08:11.643Z,25.57
2022-08-07T04:10:42.301Z,25.52
2022-08-07T04:13:15.033Z,25.50
2022-08-07T04:15:45.760Z,25.50
2022-08-07T04:18:57.654Z,25.46
2022-08-07T04:21:07.218Z,25.47
2022-08-07T04:23:43.962Z,25.47
2022-08-07T04:26:28.342Z,25.44
2022-08-07T04:28:58.533Z,25.45
2022-08-07T04:32:02.562Z,25.49
2022-08-07T04:34:23.980Z,25.52
2022-08-07T04:36:56.334Z,25.50
2022-08-07T04:39:26.251Z,25.52
2022-08-07T04:41:55.056Z,25.55
2022-08-07T04:44:26.052Z,25.60
2022-08-07T04:47:08.098Z,25.63
2022-08-07T04:49:58.032Z,25.66
2022-08-07T04:52:51.289Z,25.65
2022-08-07T04:58:12.972Z,25.67
2022-08-07T04:58:35.037Z,25.66
2022-08-07T05:01:17.975Z,25.63
2022-08-07T05:04:07.783Z,25.68
2022-08-07T05:06:43.748Z,25.65
2022-08-07T05:09:43.046Z,25.69
2022-08-07T05:12:26.715Z,25.70
2022-08-07T05:15:04.561Z,25.71
2022-08-07T05:17:50.887Z,25.72
2022-08-07T05:20:27.239Z,25.70
2022-08-07T05:22:59.036Z,25.76
2022-08-07T05:26:11.142Z,25.76
2022-08-07T05:28:22.749Z,25.71
2022-08-07T05:30:52.586Z,25.74
2022-08-07T05:33:21.576Z,25.74
2022-08-07T05:35:51.820Z,25.82
2022-08-07T05:39:00.225Z,25.83
2022-08-07T05:41:14.494Z,25.84
2022-08-07T05:44:01.293Z,25.85
2022-08-07T05:46:34.201Z,25.86
2022-08-07T05:49:11.922Z,25.88
2022-08-07T05:51:43.101Z,25.85
2022-08-07T05:54:30.349Z,25.81
2022-08-07T05:57:00.271Z,25.83
2022-08-07T05:59:28.814Z,25.84
2022-08-07T06:02:08.318Z,25.87
2022-08-07T06:04:40.493Z,25.87
2022-08-07T06:07:42.451Z,25.85
2022-08-07T06:10:05.598Z,25.89
2022-08-07T06:12:34.736Z,25.90
2022-08-07T06:15:05.567Z,25.91
2022-08-07T06:17:37.995Z,25.90
2022-08-07T06:20:12.803Z,25.92
2022-08-07T06:23:46.506Z,25.96
2022-08-07T06:25:54.009Z,25.93
2022-08-07T06:28:27.577Z,25.94
2022-08-07T06:30:58.117Z,25.94
2022-08-07T06:33:27.117Z,25.97
2022-08-07T06:36:11.843Z,25.98
2022-08-07T06:38:58.540Z,25.93
2022-08-07T06:42:02.914Z,25.88
2022-08-07T06:44:20.091Z,25.88
2022-08-07T06:46:53.462Z,25.92
2022-08-07T06:49:51.569Z,25.92
2022-08-07T06:52:32.000Z,25.92
2022-08-07T06:55:32.353Z,25.96
2022-08-07T06:57:59.429Z,25.99
2022-08-07T07:00:28.926Z,25.99
2022-08-07T07:03:00.846Z,26.02
2022-08-07T07:06:04.436Z,25.99
2022-08-07T07:08:26.459Z,25.98
2022-08-07T07:10:58.831Z,25.99
2022-08-07T07:13:43.538Z,25.86
2022-08-07T07:16:27.608Z,25.63
2022-08-07T07:19:11.506Z,25.81
2022-08-07T07:22:11.753Z,25.97
2022-08-07T07:24:43.008Z,25.83
2022-08-07T07:27:35.702Z,25.66
2022-08-07T07:30:26.575Z,25.43
2022-08-07T07:33:06.873Z,25.74
2022-08-07T07:35:50.614Z,25.89
2022-08-07T07:38:26.049Z,25.99
2022-08-07T07:41:00.034Z,26.00
2022-08-07T07:43:47.802Z,26.01
2022-08-07T07:46:49.981Z,25.98
2022-08-07T07:50:29.575Z,25.67
2022-08-07T07:52:02.820Z,25.88
2022-08-07T07:54:31.789Z,25.78
2022-08-07T07:57:02.998Z,25.82
2022-08-07T07:59:52.448Z,25.85
2022-08-07T08:02:33.919Z,25.47
2022-08-07T08:05:05.403Z,25.64
2022-08-07T08:07:59.859Z,25.67
2022-08-07T08:10:37.670Z,25.55
2022-08-07T08:13:07.358Z,25.73
2022-08-07T08:15:57.864Z,25.37
2022-08-07T08:18:27.789Z,25.20
2022-08-07T08:20:57.409Z,25.10
2022-08-07T08:23:44.943Z,25.17
2022-08-07T08:26:32.041Z,25.18
2022-08-07T08:29:00.937Z,25.34
2022-08-07T08:31:59.221Z,25.54
2022-08-07T08:34:27.300Z,25.27
2022-08-07T08:36:58.428Z,25.20
2022-08-07T08:39:39.611Z,25.19
2022-08-07T08:42:25.719Z,25.23
2022-08-07T08:45:05.592Z,25.48
2022-08-07T08:47:52.036Z,25.63
2022-08-07T08:50:35.413Z,25.45
2022-08-07T08:53:16.574Z,25.24
2022-08-07T08:55:55.095Z,25.11
2022-08-07T08:58:36.281Z,25.50
2022-08-07T09:01:15.375Z,25.74
2022-08-07T09:03:57.429Z,25.60
2022-08-07T09:06:38.401Z,25.21
2022-08-07T09:09:20.975Z,25.37
2022-08-07T09:12:31.244Z,25.64
2022-08-07T09:16:24.886Z,25.71
2022-08-07T09:18:09.868Z,25.70
2022-08-07T09:20:58.651Z,25.53
2022-08-07T09:24:30.859Z,25.54
2022-08-07T09:26:31.360Z,25.65
2022-08-07T09:30:05.111Z,25.63
2022-08-07T09:31:59.446Z,25.55
2022-08-07T09:34:32.809Z,25.60
2022-08-07T09:37:05.795Z,25.65
2022-08-07T09:39:54.475Z,25.59
2022-08-07T09:42:39.983Z,25.51
2022-08-07T09:47:23.902Z,25.48
2022-08-07T09:48:15.118Z,25.47
2022-08-07T09:50:55.687Z,25.48
2022-08-07T09:53:26.868Z,25.50
2022-08-07T09:56:37.510Z,25.50
2022-08-07T09:59:26.933Z,25.51
2022-08-07T10:02:06.994Z,25.50
2022-08-07T10:05:04.486Z,25.52
2022-08-07T10:07:57.262Z,25.52
2022-08-07T10:12:00.001Z,25.54
2022-08-07T10:14:00.810Z,25.54
2022-08-07T10:16:39.917Z,25.63
2022-08-07T10:19:37.577Z,25.64
2022-08-07T10:22:33.600Z,25.66
2022-08-07T10:25:22.910Z,25.64
2022-08-07T10:28:18.994Z,25.65
2022-08-07T10:30:59.315Z,25.61
2022-08-07T10:34:05.973Z,25.54
2022-08-07T10:36:53.363Z,25.45
2022-08-07T10:39:41.231Z,25.39
2022-08-07T10:42:30.916Z,25.42
2022-08-07T10:45:19.359Z,25.46
2022-08-07T10:48:09.658Z,25.56
2022-08-07T10:50:49.914Z,25.61
2022-08-07T10:53:26.956Z,25.53
2022-08-07T10:56:04.913Z,25.54
2022-08-07T10:58:59.362Z,25.63
2022-08-07T11:01:51.813Z,25.70
2022-08-07T11:04:41.976Z,25.72
2022-08-07T11:07:56.280Z,25.66
2022-08-07T11:10:17.452Z,25.81
2022-08-07T11:13:02.299Z,25.76
2022-08-07T11:15:34.216Z,25.71
2022-08-07T11:18:12.589Z,25.79
2022-08-07T11:20:48.132Z,25.77
2022-08-07T11:23:30.412Z,25.75
2022-08-07T11:26:06.353Z,25.75
2022-08-07T11:28:37.252Z,25.74
2022-08-07T11:31:11.462Z,25.80
2022-08-07T11:33:54.137Z,25.75
2022-08-07T11:36:40.862Z,25.59
2022-08-07T11:39:52.758Z,25.57
2022-08-07T11:42:29.749Z,25.63
2022-08-07T11:45:20.630Z,25.64
2022-08-07T11:48:13.713Z,25.74
2022-08-07T11:50:57.742Z,25.83
2022-08-07T11:53:43.342Z,25.88
2022-08-07T11:56:42.385Z,25.92
2022-08-07T12:00:10.576Z,25.96
2022-08-07T12:02:35.176Z,25.97
2022-08-07T12:05:15.204Z,25.99
2022-08-07T12:08:03.864Z,26.00
2022-08-07T12:10:41.612Z,26.01
2022-08-07T12:13:19.149Z,26.03
2022-08-07T12:16:08.923Z,26.03
2022-08-07T12:18:45.164Z,26.06
2022-08-07T12:21:55.216Z,26.09
2022-08-07T12:24:37.392Z,26.09
2022-08-07T12:27:15.819Z,26.10
2022-08-07T12:29:51.852Z,26.05
2022-08-07T12:32:25.420Z,26.06
2022-08-07T12:34:56.039Z,26.04
2022-08-07T12:37:28.458Z,26.08
2022-08-07T12:40:44.967Z,26.13
2022-08-07T12:43:09.476Z,26.12
2022-08-07T12:45:43.917Z,26.09
2022-08-07T12:48:41.399Z,26.11
2022-08-07T12:51:22.437Z,26.11
2022-08-07T12:54:37.399Z,26.14
2022-08-07T12:56:59.171Z,26.10
2022-08-07T12:59:53.880Z,26.13
2022-08-07T13:02:33.902Z,26.14
2022-08-07T13:06:03.939Z,26.13
2022-08-07T13:08:25.701Z,26.11
2022-08-07T13:11:08.575Z,26.10
2022-08-07T13:13:53.744Z,26.09
2022-08-07T13:16:29.569Z,26.09
2022-08-07T13:19:04.504Z,26.12
2022-08-07T13:21:54.963Z,26.08
2022-08-07T13:24:34.154Z,26.09
2022-08-07T13:27:20.497Z,26.09
2022-08-07T13:30:03.743Z,26.07
2022-08-07T13:32:39.826Z,26.09
2022-08-07T13:35:21.377Z,26.11
2022-08-07T13:37:59.131Z,26.12
2022-08-07T13:40:33.470Z,26.09
2022-08-07T13:43:11.849Z,26.11
2022-08-07T13:46:20.672Z,26.12
2022-08-07T13:48:38.406Z,26.09
2022-08-07T13:51:26.971Z,26.10
2022-08-07T13:54:03.108Z,26.10
2022-08-07T13:56:35.864Z,26.11
2022-08-07T13:59:13.616Z,26.11
2022-08-07T14:02:03.790Z,26.10
2022-08-07T14:04:38.041Z,26.09
2022-08-07T14:07:15.905Z,26.11
2022-08-07T14:10:03.016Z,26.12
2022-08-07T14:12:41.892Z,26.16
2022-08-07T14:15:28.552Z,26.11
2022-08-07T14:18:27.135Z,26.10
2022-08-07T14:21:00.541Z,26.09
2022-08-07T14:23:59.933Z,26.08
2022-08-07T14:26:33.610Z,26.10
2022-08-07T14:30:05.870Z,26.13
2022-08-07T14:31:57.647Z,26.15
2022-08-07T14:34:33.106Z,26.17
2022-08-07T14:37:03.773Z,26.14
2022-08-07T14:40:14.722Z,26.17
2022-08-07T14:42:32.331Z,26.15
2022-08-07T14:45:21.471Z,26.16
2022-08-07T14:47:58.708Z,26.18
2022-08-07T14:53:18.680Z,26.14
2022-08-07T14:56:08.767Z,26.15
2022-08-07T14:58:45.246Z,26.13
2022-08-07T15:01:22.762Z,26.13
2022-08-07T15:03:53.641Z,26.15
2022-08-07T15:06:27.112Z,26.16
2022-08-07T15:08:56.059Z,26.18
2022-08-07T15:11:54.033Z,26.22
2022-08-07T15:14:19.240Z,26.22
2022-08-07T15:16:54.985Z,26.22
2022-08-07T15:22:29.568Z,26.23
2022-08-07T15:25:17.305Z,26.23
2022-08-07T15:28:32.246Z,26.23
2022-08-07T15:30:59.449Z,26.23
2022-08-07T15:37:03.386Z,26.26
2022-08-07T15:39:12.401Z,26.26
2022-08-07T15:42:45.707Z,26.27
2022-08-07T15:44:52.094Z,26.22
2022-08-07T15:47:20.833Z,26.22
2022-08-07T15:50:37.935Z,26.22
2022-08-07T15:53:11.408Z,26.24
2022-08-07T15:55:53.726Z,26.28
2022-08-07T15:58:37.344Z,26.27
2022-08-07T16:01:08.833Z,26.27
2022-08-07T16:03:46.371Z,26.30
2022-08-07T16:06:17.633Z,26.25
2022-08-07T16:08:46.513Z,26.24
2022-08-07T16:11:29.291Z,26.28
2022-08-07T16:14:10.816Z,26.26
2022-08-07T16:18:01.890Z,26.29
2022-08-07T16:20:34.647Z,26.27
2022-08-07T16:23:25.194Z,26.22
2022-08-07T16:26:14.383Z,26.27
2022-08-07T16:30:05.548Z,26.26
2022-08-07T16:32:00.813Z,26.33
2022-08-07T16:34:45.276Z,26.30
2022-08-07T16:38:05.964Z,26.23
2022-08-07T16:41:22.349Z,26.23
2022-08-07T16:44:40.402Z,26.10
2022-08-07T16:47:56.818Z,26.11
2022-08-07T16:51:21.011Z,26.08
2022-08-07T16:54:09.116Z,25.93
2022-08-07T16:56:56.745Z,25.95
2022-08-07T16:59:45.629Z,26.04
2022-08-07T17:02:51.330Z,25.95
2022-08-07T17:06:28.267Z,25.76
2022-08-07T17:09:04.249Z,25.67
2022-08-07T17:12:04.705Z,25.69
2022-08-07T17:14:22.319Z,25.88
2022-08-07T17:16:56.071Z,25.92
2022-08-07T17:20:02.762Z,25.94
2022-08-07T17:22:30.115Z,25.93
2022-08-07T17:25:11.248Z,26.04
2022-08-07T17:27:51.750Z,25.98
2022-08-07T17:30:26.642Z,25.94
2022-08-07T17:34:32.528Z,25.99
2022-08-07T17:36:03.773Z,25.97
2022-08-07T17:38:36.772Z,25.92
2022-08-07T17:41:12.463Z,25.82
2022-08-07T17:44:09.332Z,25.81
2022-08-07T17:46:47.502Z,25.87
2022-08-07T17:49:24.500Z,25.87
2022-08-07T17:52:00.493Z,25.74
2022-08-07T17:54:53.279Z,25.76
2022-08-07T17:57:56.129Z,25.88
2022-08-07T18:00:32.915Z,25.75
2022-08-07T18:03:18.226Z,25.76
2022-08-07T18:06:02.039Z,25.76
2022-08-07T18:08:34.012Z,25.77
2022-08-07T18:12:07.333Z,25.82
2022-08-07T18:14:01.598Z,25.69
2022-08-07T18:16:34.983Z,25.59
2022-08-07T18:21:03.253Z,25.68
2022-08-07T18:22:07.397Z,25.73
2022-08-07T18:24:47.121Z,25.82
2022-08-07T18:27:38.148Z,25.93
2022-08-07T18:30:32.823Z,25.91
2022-08-07T18:33:54.899Z,25.85
2022-08-07T18:36:33.553Z,25.89
2022-08-07T18:40:07.757Z,25.86
2022-08-07T18:42:17.526Z,25.81
2022-08-07T18:45:43.639Z,25.82
2022-08-07T18:48:01.124Z,25.82
2022-08-07T18:51:07.335Z,25.80
2022-08-07T18:53:55.613Z,25.85
2022-08-07T18:56:34.832Z,25.84
2022-08-07T18:59:47.187Z,25.81
2022-08-07T19:02:32.838Z,25.72
2022-08-07T19:05:15.609Z,25.79
2022-08-07T19:07:58.767Z,25.85
2022-08-07T19:10:32.004Z,25.83
2022-08-07T19:13:24.812Z,25.76
2022-08-07T19:16:04.527Z,25.76
2022-08-07T19:18:50.710Z,25.79
2022-08-07T19:21:48.065Z,25.78
2022-08-07T19:24:29.975Z,25.76
2022-08-07T19:28:29.801Z,25.69
2022-08-07T19:31:00.695Z,25.70
2022-08-07T19:32:46.356Z,25.76
2022-08-07T19:35:22.552Z,25.78
2022-08-07T19:37:57.945Z,25.78
2022-08-07T19:40:31.221Z,25.76
2022-08-07T19:43:02.520Z,25.75
2022-08-07T19:46:07.837Z,25.75
2022-08-07T19:48:26.696Z,25.70
2022-08-07T19:50:57.618Z,25.72
2022-08-07T19:54:33.179Z,25.71
2022-08-07T19:57:50.836Z,25.72
2022-08-07T19:59:11.848Z,25.71
2022-08-07T20:01:57.319Z,25.73
2022-08-07T20:04:31.569Z,25.61
2022-08-07T20:07:09.051Z,25.67
2022-08-07T20:10:33.522Z,25.68
2022-08-07T20:12:36.004Z,25.68
2022-08-07T20:15:15.636Z,25.70
2022-08-07T20:18:01.611Z,25.67
2022-08-07T20:20:34.746Z,25.68
2022-08-07T20:23:22.817Z,25.67
2022-08-07T20:25:55.185Z,25.72
2022-08-07T20:28:29.485Z,25.71
2022-08-07T20:30:58.512Z,25.68
2022-08-07T20:33:37.674Z,25.67
2022-08-07T20:36:08.196Z,25.66
2022-08-07T20:38:59.421Z,25.63
2022-08-07T20:41:28.180Z,25.62
2022-08-07T20:44:03.046Z,25.59
2022-08-07T20:46:44.427Z,25.57
2022-08-07T20:49:58.517Z,25.63
2022-08-07T20:52:16.461Z,25.61
2022-08-07T20:54:53.177Z,25.59
2022-08-07T20:57:25.147Z,25.59
2022-08-07T21:00:07.836Z,25.57
2022-08-07T21:03:00.012Z,25.58
2022-08-07T21:05:52.838Z,25.57
2022-08-07T21:08:36.891Z,25.57
2022-08-07T21:11:10.775Z,25.58
2022-08-07T21:13:57.049Z,25.50
2022-08-07T21:16:36.686Z,25.50
2022-08-07T21:19:06.305Z,25.38
2022-08-07T21:21:56.800Z,25.47
2022-08-07T21:24:36.561Z,25.47
2022-08-07T21:27:13.419Z,25.48
2022-08-07T21:30:00.345Z,25.55
2022-08-07T21:32:47.314Z,25.57
2022-08-07T21:35:34.888Z,25.56
2022-08-07T21:38:21.660Z,25.56
2022-08-07T21:41:05.837Z,25.59
2022-08-07T21:43:55.473Z,25.55
2022-08-07T21:46:32.227Z,25.57
2022-08-07T21:49:15.139Z,25.53
2022-08-07T21:51:59.527Z,25.57
2022-08-07T21:54:46.067Z,25.57
2022-08-07T21:57:40.007Z,25.55
2022-08-07T22:00:23.017Z,25.59
2022-08-07T22:03:00.196Z,25.56
2022-08-07T22:05:44.278Z,25.53
2022-08-07T22:08:18.440Z,25.49
2022-08-07T22:10:50.932Z,25.40
2022-08-07T22:13:24.401Z,25.51
2022-08-07T22:16:39.826Z,25.52
2022-08-07T22:19:07.465Z,25.56
2022-08-07T22:22:05.023Z,25.56
2022-08-07T22:24:34.800Z,25.53
2022-08-07T22:27:10.415Z,25.56
2022-08-07T22:29:48.170Z,25.53
2022-08-07T22:32:22.162Z,25.50
2022-08-07T22:34:54.984Z,25.52
2022-08-07T22:38:03.063Z,25.50
2022-08-07T22:40:25.866Z,25.54
2022-08-07T22:43:03.281Z,25.53
2022-08-07T22:46:21.812Z,25.52
2022-08-07T22:48:55.571Z,25.55
2022-08-07T22:51:53.793Z,25.56
2022-08-07T22:55:17.181Z,25.48
2022-08-07T22:58:10.926Z,25.46
2022-08-07T23:00:44.458Z,25.49
2022-08-07T23:03:58.169Z,25.50
2022-08-07T23:06:58.801Z,25.43
2022-08-07T23:10:05.453Z,25.45
2022-08-07T23:12:35.812Z,25.46
2022-08-07T23:16:04.293Z,25.44
2022-08-07T23:18:25.855Z,25.47
2022-08-07T23:21:11.610Z,25.47
2022-08-07T23:24:16.855Z,25.46
2022-08-07T23:27:03.050Z,25.43
2022-08-07T23:30:37.934Z,25.45
2022-08-07T23:34:35.327Z,25.42
2022-08-07T23:36:17.224Z,25.20
2022-08-07T23:39:00.150Z,25.25
2022-08-07T23:42:01.717Z,25.37
2022-08-07T23:44:51.482Z,25.30
2022-08-07T23:47:42.332Z,25.34
2022-08-07T23:50:30.365Z,25.34
2022-08-07T23:53:15.348Z,25.34
2022-08-07T23:55:55.852Z,25.35
2022-08-07T23:58:35.294Z,25.31
